Time;durP1;ratioP1;P1;durP2;ratioP2;P2;SDS_P1;SDS_P2;PMS_P1;PMS_P2;Temp;Humidity;BMP_temperature;BMP_pressure;BME280_temperature;BME280_humidity;BME280_pressure;Samples;Min_cycle;Max_cycle;Signal;HPM_P1;HPM_P2
2022/11/07 00:00:39;;;;;;;;;5.67;4.67;;;;;12.52;81.52;100761.66;4978825;28;45259;-68
2022/11/07 00:03:05;;;;;;;;;5.67;3.00;;;;;12.56;81.79;100763.00;4979075;28;49739;-69
2022/11/07 00:05:30;;;;;;;;;4.00;4.00;;;;;12.53;81.54;100760.66;4979684;28;45434;-70
2022/11/07 00:07:56;;;;;;;;;6.00;4.33;;;;;12.48;81.66;100766.47;4979585;28;47566;-70
2022/11/07 00:10:21;;;;;;;;;4.33;4.33;;;;;12.30;81.75;100732.84;4980019;28;45285;-68
2022/11/07 00:12:46;;;;;;;;;6.67;5.00;;;;;12.32;81.36;100734.34;4978645;28;45276;-70
2022/11/07 00:15:12;;;;;;;;;6.00;2.00;;;;;12.33;81.62;100736.03;4978231;28;45572;-69
2022/11/07 00:17:37;;;;;;;;;4.00;3.33;;;;;12.48;81.44;100753.16;4978919;28;46323;-70
2022/11/07 00:20:03;;;;;;;;;6.00;4.50;;;;;12.60;81.39;100769.72;4978089;28;45524;-70
2022/11/07 00:22:28;;;;;;;;;7.00;4.33;;;;;11.14;80.98;100534.94;4979784;28;45322;-69
2022/11/07 00:24:54;;;;;;;;;5.33;5.00;;;;;12.24;81.15;100720.97;4994517;28;45457;-70
2022/11/07 00:27:19;;;;;;;;;8.00;4.67;;;;;12.69;81.42;100790.13;4977804;28;54070;-71
2022/11/07 00:29:44;;;;;;;;;6.33;4.67;;;;;12.70;80.80;100791.78;4994129;28;45495;-69
2022/11/07 00:32:10;;;;;;;;;5.00;4.00;;;;;12.70;81.23;100785.63;4979195;28;45371;-70
2022/11/07 00:34:35;;;;;;;;;6.33;4.33;;;;;12.16;80.84;100715.56;4979374;28;45448;-69
2022/11/07 00:37:01;;;;;;;;;4.33;4.33;;;;;12.63;80.90;100764.09;4979094;28;46383;-69
2022/11/07 00:39:27;;;;;;;;;5.67;5.67;;;;;12.71;80.87;100766.78;4979580;28;45426;-70
2022/11/07 00:41:52;;;;;;;;;4.00;3.00;;;;;12.75;81.00;100783.31;4979137;28;45343;-69
2022/11/07 00:44:18;;;;;;;;;3.00;3.00;;;;;12.72;80.67;100778.31;4979100;28;45224;-68
2022/11/07 00:46:43;;;;;;;;;7.00;3.00;;;;;12.26;80.82;100703.00;4978221;28;56026;-70
2022/11/07 00:49:09;;;;;;;;;6.33;5.00;;;;;11.99;80.56;100660.47;4978715;28;45314;-70
2022/11/07 00:51:35;;;;;;;;;5.33;4.67;;;;;12.82;80.82;100780.88;4978023;28;45460;-69
2022/11/07 00:54:02;;;;;;;;;3.00;3.00;;;;;12.43;80.55;100712.78;4978257;28;45215;-68
2022/11/07 00:56:28;;;;;;;;;4.00;3.00;;;;;12.84;80.67;100781.56;4978662;28;46380;-70
2022/11/07 00:58:58;;;;;;;;;3.67;3.00;;;;;12.23;80.54;100670.50;4978378;28;45367;-67
2022/11/07 01:01:26;;;;;;;;;5.67;4.67;;;;;12.39;80.35;100699.91;4977542;28;45365;-69
2022/11/07 01:06:37;;;;;;;;;9.50;4.50;;;;;12.22;80.46;100664.31;4979058;28;45554;-69
2022/11/07 01:09:06;;;;;;;;;4.67;3.33;;;;;12.78;80.54;100756.31;4977044;28;45473;-69
2022/11/07 01:11:31;;;;;;;;;4.33;2.00;;;;;12.54;80.28;100716.16;4978647;28;45372;-68
2022/11/07 01:14:00;;;;;;;;;4.67;4.67;;;;;12.81;80.33;100788.00;4993995;28;45311;-68
2022/11/07 01:16:27;;;;;;;;;9.00;5.33;;;;;12.63;80.64;100736.56;4976256;28;47004;-69
2022/11/07 01:18:53;;;;;;;;;4.67;4.00;;;;;12.83;80.69;100777.22;4978324;28;45342;-68
2022/11/07 01:21:18;;;;;;;;;5.00;5.00;;;;;12.72;80.50;100757.78;4978356;28;45273;-69
2022/11/07 01:23:44;;;;;;;;;8.67;4.67;;;;;12.82;80.56;100784.38;4977375;28;45405;-70
2022/11/07 01:26:11;;;;;;;;;5.67;3.00;;;;;12.43;80.75;100720.78;4976453;28;63878;-69
2022/11/07 01:28:39;;;;;;;;;4.00;4.00;;;;;10.15;80.21;100352.50;4978216;28;45374;-69
2022/11/07 01:31:07;;;;;;;;;5.33;3.00;;;;;12.70;80.94;100764.28;4977803;28;45421;-68
2022/11/07 01:33:33;;;;;;;;;6.00;5.00;;;;;12.37;80.50;100718.72;4977916;28;45258;-68
2022/11/07 01:36:04;;;;;;;;;6.67;5.33;;;;;12.74;80.81;100786.97;4977722;28;46987;-68
2022/11/07 01:38:29;;;;;;;;;7.67;4.67;;;;;12.77;80.97;100778.66;4977330;28;45330;-69
2022/11/07 01:43:50;;;;;;;;;7.00;4.00;;;;;11.93;80.99;100647.78;4977882;28;45433;-69
2022/11/07 01:46:16;;;;;;;;;6.00;4.00;;;;;12.76;80.97;100790.31;4977791;28;46124;-69
2022/11/07 01:48:49;;;;;;;;;7.00;4.00;;;;;12.28;80.88;100710.84;4974106;28;46270;-68
2022/11/07 01:51:16;;;;;;;;;6.67;3.33;;;;;12.69;81.17;100778.63;4957349;28;45331;-68
2022/11/07 01:53:42;;;;;;;;;6.00;4.00;;;;;12.32;80.75;100725.53;4958202;28;45169;-68
2022/11/07 01:56:13;;;;;;;;;4.33;4.33;;;;;12.77;80.89;100792.00;4957712;28;46317;-69
2022/11/07 01:58:40;;;;;;;;;4.67;4.00;;;;;12.84;80.38;100800.22;4957923;28;45354;-70
2022/11/07 02:01:05;;;;;;;;;6.00;5.00;;;;;12.82;80.88;100796.88;4956696;28;45681;-69
2022/11/07 02:03:31;;;;;;;;;6.00;5.33;;;;;12.85;80.45;100794.72;4972590;28;45496;-68
2022/11/07 02:06:02;;;;;;;;;4.00;3.33;;;;;12.79;80.43;100790.84;4992187;28;47290;-68
2022/11/07 02:08:31;;;;;;;;;6.00;3.00;;;;;12.86;80.73;100801.75;4992355;28;45440;-68
2022/11/07 02:10:59;;;;;;;;;7.67;4.67;;;;;12.83;80.12;100788.72;4975375;28;45517;-68
2022/11/07 02:13:27;;;;;;;;;4.00;3.33;;;;;12.88;80.39;100797.09;4975267;28;45714;-69
2022/11/07 02:15:52;;;;;;;;;6.67;3.67;;;;;12.78;80.75;100775.81;4977294;28;46506;-68
2022/11/07 02:18:18;;;;;;;;;5.67;4.00;;;;;12.86;80.63;100807.09;4977517;28;45446;-68
2022/11/07 02:20:45;;;;;;;;;4.33;2.67;;;;;12.87;80.69;100803.41;4978292;28;45296;-68
2022/11/07 02:23:19;;;;;;;;;4.33;3.67;;;;;12.80;80.91;100781.00;4978034;28;45307;-69
2022/11/07 02:25:44;;;;;;;;;8.67;5.00;;;;;12.86;80.64;100795.56;4976460;28;45782;-70
2022/11/07 02:28:11;;;;;;;;;6.00;4.67;;;;;12.84;80.86;100808.22;4977009;28;45468;-70
2022/11/07 02:30:37;;;;;;;;;5.00;2.00;;;;;12.85;80.34;100799.22;4975801;28;45387;-68
2022/11/07 02:33:14;;;;;;;;;4.33;2.00;;;;;12.61;80.47;100746.53;4977307;28;45351;-68
2022/11/07 02:35:42;;;;;;;;;3.33;3.33;;;;;12.68;80.45;100766.28;4975394;28;47642;-67
2022/11/07 02:38:25;;;;;;;;;5.67;3.33;;;;;12.78;80.59;100799.00;4977125;28;45572;-70
2022/11/07 02:40:54;;;;;;;;;6.00;3.00;;;;;12.68;80.75;100787.63;4975815;28;45368;-69
2022/11/07 02:43:24;;;;;;;;;6.00;3.33;;;;;12.81;80.28;100798.69;4976445;28;45545;-69
2022/11/07 02:45:50;;;;;;;;;5.67;4.00;;;;;12.86;80.47;100796.41;4975377;28;45658;-70
2022/11/07 02:48:16;;;;;;;;;5.00;3.00;;;;;12.78;80.10;100773.16;4974693;28;46292;-67
2022/11/07 02:50:42;;;;;;;;;7.33;3.67;;;;;12.73;79.93;100754.13;4990947;28;45524;-70
2022/11/07 02:53:07;;;;;;;;;4.33;3.67;;;;;12.50;80.13;100726.31;4991958;28;45477;-68
2022/11/07 02:55:32;;;;;;;;;7.33;6.00;;;;;12.65;80.33;100747.91;4976798;28;46502;-69
2022/11/07 02:57:58;;;;;;;;;3.00;2.33;;;;;12.76;80.22;100759.16;4976323;28;45393;-68
2022/11/07 03:00:23;;;;;;;;;8.00;5.00;;;;;12.84;80.15;100768.22;4976620;28;45410;-68
2022/11/07 03:02:49;;;;;;;;;5.67;3.00;;;;;12.50;79.63;100710.31;4977352;28;45299;-68
2022/11/07 03:05:16;;;;;;;;;4.00;4.00;;;;;12.77;80.08;100751.97;4979104;28;45943;-66
2022/11/07 03:07:43;;;;;;;;;4.00;4.00;;;;;12.87;80.04;100787.41;4980103;28;45603;-70
2022/11/07 03:10:09;;;;;;;;;4.67;3.00;;;;;12.78;79.98;100761.66;4979664;28;45218;-69
2022/11/07 03:12:35;;;;;;;;;4.00;2.00;;;;;12.64;79.88;100732.91;4978998;28;45390;-67
2022/11/07 03:15:01;;;;;;;;;7.67;3.33;;;;;12.87;79.77;100771.41;4979813;28;45807;-69
2022/11/07 03:17:26;;;;;;;;;6.33;4.00;;;;;12.78;79.80;100769.66;4979712;28;45427;-70
2022/11/07 03:19:51;;;;;;;;;8.33;4.67;;;;;12.26;79.26;100689.66;4979956;28;45621;-68
2022/11/07 03:22:17;;;;;;;;;2.67;2.67;;;;;12.86;79.56;100790.22;4978605;28;45563;-67
2022/11/07 03:24:42;;;;;;;;;6.00;3.67;;;;;12.23;79.76;100689.16;4979791;28;47710;-69
2022/11/07 03:27:07;;;;;;;;;6.00;5.00;;;;;12.73;79.92;100771.97;4979270;28;52908;-69
2022/11/07 03:29:32;;;;;;;;;2.67;2.67;;;;;12.83;79.77;100785.22;4980029;28;45495;-68
2022/11/07 03:31:58;;;;;;;;;7.00;4.00;;;;;12.90;79.68;100786.25;4979709;28;45375;-69
2022/11/07 03:34:23;;;;;;;;;6.00;4.00;;;;;12.88;79.54;100791.75;4977413;28;55560;-69
2022/11/07 03:36:48;;;;;;;;;4.67;3.67;;;;;12.91;79.63;100798.59;4978723;28;45447;-69
2022/11/07 03:39:14;;;;;;;;;7.33;3.00;;;;;12.41;79.42;100712.09;4979235;28;54269;-69
2022/11/07 03:41:39;;;;;;;;;4.67;3.00;;;;;11.87;79.66;100628.78;4979542;28;45435;-68
2022/11/07 03:44:05;;;;;;;;;6.00;4.33;;;;;12.77;79.52;100774.16;4980211;28;46768;-70
2022/11/07 03:46:30;;;;;;;;;5.67;4.33;;;;;12.94;79.53;100799.09;4962048;28;45500;-67
2022/11/07 03:48:55;;;;;;;;;3.67;3.67;;;;;12.96;79.61;100797.13;4979504;28;45379;-68
2022/11/07 03:51:21;;;;;;;;;5.33;3.00;;;;;12.46;79.59;100719.63;4979516;28;45196;-68
2022/11/07 03:53:46;;;;;;;;;5.67;3.67;;;;;12.89;79.76;100782.75;4978921;28;45694;-69
2022/11/07 03:56:12;;;;;;;;;6.75;4.00;;;;;12.93;80.03;100786.75;4978394;28;46171;-69
2022/11/07 03:58:37;;;;;;;;;4.33;2.00;;;;;12.39;80.05;100698.06;4993538;28;45267;-67
2022/11/07 04:01:04;;;;;;;;;4.33;3.00;;;;;12.17;79.89;100659.44;4979368;28;45488;-69
2022/11/07 04:03:30;;;;;;;;;5.00;3.67;;;;;12.91;80.21;100775.41;4976214;28;47068;-68
2022/11/07 04:05:56;;;;;;;;;3.00;1.33;;;;;12.85;80.49;100786.72;4976923;28;45668;-68
2022/11/07 04:08:21;;;;;;;;;6.00;6.00;;;;;12.88;80.38;100781.06;4979697;28;45551;-68
2022/11/07 04:10:46;;;;;;;;;7.33;4.67;;;;;12.80;80.31;100757.00;4979174;28;45383;-69
2022/11/07 04:18:39;;;;;;;;;10.00;6.00;;;;;12.71;80.18;100736.63;4978828;28;45529;-68
2022/11/07 04:21:06;;;;;;;;;3.00;2.00;;;;;12.93;80.15;100781.44;4978244;28;45655;-68
2022/11/07 04:23:31;;;;;;;;;5.67;3.00;;;;;12.26;80.12;100654.19;4978692;28;45635;-67
2022/11/07 04:28:41;;;;;;;;;4.00;3.00;;;;;12.55;80.56;100707.16;4978199;28;45373;-67
2022/11/07 04:31:06;;;;;;;;;3.33;2.33;;;;;12.94;80.12;100780.44;4978781;28;45433;-69
2022/11/07 04:33:31;;;;;;;;;6.00;5.00;;;;;12.94;79.92;100793.78;4978503;28;45634;-69
2022/11/07 04:35:57;;;;;;;;;3.33;3.00;;;;;12.95;80.12;100790.09;4977178;28;45383;-68
2022/11/07 04:38:22;;;;;;;;;5.67;3.00;;;;;12.85;80.09;100767.22;4979087;28;45295;-68
2022/11/07 04:40:53;;;;;;;;;3.00;3.00;;;;;12.51;80.02;100716.50;4994360;28;45452;-68
2022/11/07 04:43:18;;;;;;;;;4.00;3.00;;;;;12.71;80.13;100745.44;4978227;28;48066;-70
2022/11/07 04:45:43;;;;;;;;;3.67;3.00;;;;;12.49;79.96;100714.81;4977017;28;45528;-67
2022/11/07 04:48:11;;;;;;;;;8.67;6.67;;;;;12.55;80.35;100723.16;4978608;28;45231;-68
2022/11/07 04:50:37;;;;;;;;;3.67;2.33;;;;;12.36;80.18;100679.72;4978909;28;45356;-68
2022/11/07 04:53:03;;;;;;;;;4.67;3.00;;;;;12.73;80.07;100737.28;4977829;28;45658;-68
2022/11/07 04:55:31;;;;;;;;;4.00;3.00;;;;;13.01;80.14;100788.63;4978806;28;45613;-70
2022/11/07 04:57:57;;;;;;;;;8.00;3.00;;;;;13.00;80.22;100782.47;4978803;28;45596;-68
2022/11/07 05:00:23;;;;;;;;;5.33;2.33;;;;;13.01;80.51;100793.97;4978833;28;45528;-68
2022/11/07 05:02:49;;;;;;;;;4.00;2.67;;;;;12.40;80.34;100694.41;4977956;28;46403;-69
2022/11/07 05:05:17;;;;;;;;;4.67;3.33;;;;;13.00;80.56;100781.63;4977747;28;45452;-68
2022/11/07 05:07:42;;;;;;;;;4.67;2.00;;;;;12.80;80.71;100757.00;4978216;28;45254;-68
2022/11/07 05:10:16;;;;;;;;;6.00;4.00;;;;;12.45;80.75;100704.63;4977373;28;45346;-69
2022/11/07 05:12:41;;;;;;;;;3.33;3.33;;;;;12.76;80.79;100743.13;4975936;28;47145;-69
2022/11/07 05:15:07;;;;;;;;;4.50;4.50;;;;;12.86;81.27;100753.72;4977956;28;45330;-68
2022/11/07 05:17:32;;;;;;;;;5.00;5.00;;;;;13.00;80.88;100769.13;4977792;28;45246;-70
2022/11/07 05:19:58;;;;;;;;;7.00;4.33;;;;;13.02;80.61;100769.81;4978213;28;45238;-69
2022/11/07 05:25:07;;;;;;;;;5.00;3.00;;;;;12.57;81.08;100699.84;4974962;28;45612;-69
2022/11/07 05:27:33;;;;;;;;;8.33;3.67;;;;;12.83;80.78;100743.38;4977270;28;45485;-67
2022/11/07 05:29:58;;;;;;;;;5.67;4.00;;;;;13.06;80.79;100773.00;4977987;28;45467;-69
2022/11/07 05:32:23;;;;;;;;;6.00;5.00;;;;;13.05;80.65;100782.84;4977417;28;59737;-70
2022/11/07 05:34:49;;;;;;;;;5.33;3.67;;;;;12.53;80.49;100703.84;4977492;28;45318;-69
2022/11/07 05:37:14;;;;;;;;;5.00;4.33;;;;;13.08;80.50;100793.19;4977592;28;45296;-70
2022/11/07 05:39:39;;;;;;;;;6.00;6.00;;;;;12.61;80.80;100722.53;4992902;28;45600;-69
2022/11/07 05:42:05;;;;;;;;;3.67;2.67;;;;;13.09;80.98;100802.88;4977637;28;45757;-69
2022/11/07 05:44:30;;;;;;;;;6.33;4.67;;;;;13.10;80.94;100796.53;4978128;28;45299;-68
2022/11/07 05:46:56;;;;;;;;;3.67;3.67;;;;;12.77;80.16;100738.63;4978141;28;45217;-69
2022/11/07 05:49:23;;;;;;;;;8.00;5.33;;;;;13.15;80.26;100805.91;4977691;28;45449;-69
2022/11/07 05:51:48;;;;;;;;;3.67;2.67;;;;;13.15;80.84;100805.91;4976207;28;45492;-69
2022/11/07 05:54:13;;;;;;;;;4.00;3.00;;;;;12.87;80.50;100760.72;4977442;28;45388;-69
2022/11/07 05:56:39;;;;;;;;;4.33;2.00;;;;;12.74;80.42;100736.28;4977625;28;45207;-68
2022/11/07 05:59:05;;;;;;;;;4.33;3.00;;;;;13.22;80.57;100815.00;4977091;28;45447;-70
2022/11/07 06:01:30;;;;;;;;;4.00;1.00;;;;;12.76;80.37;100737.81;4977073;28;46936;-69
2022/11/07 06:03:56;;;;;;;;;3.00;3.00;;;;;13.22;79.90;100815.81;4992655;28;45631;-69
2022/11/07 06:06:21;;;;;;;;;4.00;3.00;;;;;13.15;80.16;100816.56;4976826;28;45572;-70
2022/11/07 06:08:46;;;;;;;;;4.00;4.00;;;;;13.24;79.68;100821.00;4978093;28;45784;-69
2022/11/07 06:11:12;;;;;;;;;5.00;4.00;;;;;13.24;79.91;100807.66;4977503;28;46122;-70
2022/11/07 06:13:37;;;;;;;;;2.67;2.67;;;;;13.25;79.51;100812.00;4977277;28;45610;-69
2022/11/07 06:16:04;;;;;;;;;5.67;3.00;;;;;13.04;79.67;100770.50;4977696;28;45774;-69
2022/11/07 06:18:29;;;;;;;;;4.67;3.00;;;;;11.07;79.35;100456.75;4977390;28;45464;-68
2022/11/07 06:20:55;;;;;;;;;8.00;4.00;;;;;13.29;79.24;100824.03;4976468;28;45770;-69
2022/11/07 06:23:20;;;;;;;;;2.00;2.00;;;;;13.26;79.39;100827.84;4977141;28;48521;-68
2022/11/07 06:25:46;;;;;;;;;4.00;2.33;;;;;13.31;79.31;100822.03;4978007;28;45521;-69
2022/11/07 06:28:12;;;;;;;;;4.00;2.67;;;;;13.34;79.13;100824.38;4978017;28;45443;-69
2022/11/07 06:30:38;;;;;;;;;6.67;5.00;;;;;13.28;79.51;100817.84;4975873;28;47498;-67
2022/11/07 06:33:06;;;;;;;;;3.00;2.33;;;;;13.35;79.88;100834.91;4977416;28;45278;-69
2022/11/07 06:35:32;;;;;;;;;4.00;3.00;;;;;13.35;79.55;100840.25;4976047;28;45367;-71
2022/11/07 06:38:07;;;;;;;;;6.00;4.33;;;;;13.40;79.46;100863.78;4995417;28;45377;-69
2022/11/07 06:40:33;;;;;;;;;6.00;3.00;;;;;13.33;79.73;100825.38;4982243;28;45708;-70
2022/11/07 06:43:13;;;;;;;;;5.67;2.67;;;;;12.56;78.99;100695.50;4980777;28;45432;-69
2022/11/07 06:45:39;;;;;;;;;3.00;2.33;;;;;12.82;79.01;100741.69;4980581;28;45359;-71
2022/11/07 06:48:06;;;;;;;;;4.67;2.00;;;;;13.49;79.05;100846.81;4980898;28;45482;-69
2022/11/07 06:50:32;;;;;;;;;2.25;2.25;;;;;13.04;78.88;100765.16;4980197;28;46677;-71
2022/11/07 06:53:07;;;;;;;;;4.33;3.00;;;;;13.34;78.96;100817.19;4980651;28;45382;-70
2022/11/07 06:55:34;;;;;;;;;8.00;7.00;;;;;13.47;78.85;100842.63;4979503;28;45416;-69
2022/11/07 06:58:00;;;;;;;;;5.00;3.00;;;;;13.21;78.87;100799.94;4980423;28;45295;-68
2022/11/07 07:00:27;;;;;;;;;4.00;4.00;;;;;13.52;79.25;100849.16;4980052;28;47140;-69
2022/11/07 07:02:52;;;;;;;;;5.33;3.67;;;;;13.43;78.92;100834.13;4995556;28;45472;-70
2022/11/07 07:05:18;;;;;;;;;3.00;2.67;;;;;13.32;78.82;100816.53;4993207;28;45453;-68
2022/11/07 07:07:43;;;;;;;;;6.00;6.00;;;;;11.37;78.78;100489.22;4996022;28;45251;-71
2022/11/07 07:10:09;;;;;;;;;6.33;3.00;;;;;13.27;79.16;100804.66;4979916;28;46690;-71
2022/11/07 07:12:34;;;;;;;;;5.67;2.00;;;;;13.50;79.07;100837.81;4979498;28;45159;-71
2022/11/07 07:14:59;;;;;;;;;6.67;3.00;;;;;13.59;79.12;100850.19;4980150;28;45502;-70
2022/11/07 07:17:25;;;;;;;;;3.33;3.33;;;;;13.67;79.00;100870.78;4977971;28;45579;-71
2022/11/07 07:19:50;;;;;;;;;7.33;4.33;;;;;13.68;79.07;100857.25;4980855;28;54704;-72
2022/11/07 07:22:15;;;;;;;;;6.33;5.00;;;;;13.66;78.96;100859.25;4981929;28;45429;-70
2022/11/07 07:24:44;;;;;;;;;9.67;3.67;;;;;13.73;78.69;100863.94;4979059;28;45482;-72
2022/11/07 07:27:13;;;;;;;;;10.00;5.67;;;;;13.32;78.55;100797.84;4980702;28;45478;-71
2022/11/07 07:29:38;;;;;;;;;3.00;2.50;;;;;13.54;78.62;100839.16;4978422;28;45380;-72
2022/11/07 07:32:04;;;;;;;;;5.67;4.33;;;;;13.57;78.79;100830.81;4977982;28;68252;-71
2022/11/07 07:34:29;;;;;;;;;2.67;2.67;;;;;13.77;78.89;100860.78;4980095;28;45478;-70
2022/11/07 07:36:54;;;;;;;;;4.33;3.00;;;;;13.63;78.80;100840.03;4979580;28;45266;-70
2022/11/07 07:39:20;;;;;;;;;8.00;7.00;;;;;13.17;78.59;100763.84;4978903;28;48480;-72
2022/11/07 07:41:47;;;;;;;;;6.67;3.67;;;;;13.87;78.49;100874.03;4979991;28;45503;-70
2022/11/07 07:44:12;;;;;;;;;3.00;3.00;;;;;13.44;78.51;100795.72;4979791;28;45551;-70
2022/11/07 07:46:37;;;;;;;;;7.67;5.00;;;;;13.63;78.22;100822.19;4980435;28;45353;-71
2022/11/07 07:49:03;;;;;;;;;8.00;4.33;;;;;13.93;78.37;100874.19;4977984;28;45487;-70
2022/11/07 07:51:28;;;;;;;;;4.00;4.00;;;;;13.98;78.25;100879.88;4979785;28;45579;-68
2022/11/07 07:53:53;;;;;;;;;4.33;4.33;;;;;13.71;78.22;100824.03;4979753;28;45463;-71
2022/11/07 07:56:19;;;;;;;;;5.67;5.67;;;;;13.77;78.24;100834.06;4980910;28;45384;-70
2022/11/07 07:58:45;;;;;;;;;4.33;3.00;;;;;13.18;78.05;100736.19;4980531;28;45970;-71
2022/11/07 08:01:10;;;;;;;;;5.00;2.67;;;;;14.03;78.30;100871.41;4979639;28;45202;-71
2022/11/07 08:03:36;;;;;;;;;3.33;3.33;;;;;13.25;78.07;100738.09;4992633;28;45658;-72
2022/11/07 08:06:04;;;;;;;;;2.00;2.00;;;;;13.99;77.93;100864.69;4979968;28;45187;-71
2022/11/07 08:08:30;;;;;;;;;4.00;2.33;;;;;13.77;77.92;100833.22;4976918;28;45623;-72
2022/11/07 08:11:03;;;;;;;;;4.00;2.75;;;;;13.57;77.77;100790.75;4978340;28;45491;-71
2022/11/07 08:13:29;;;;;;;;;5.33;2.67;;;;;13.87;77.96;100844.63;4975789;28;45552;-73
2022/11/07 08:15:54;;;;;;;;;5.67;3.33;;;;;14.17;77.89;100884.13;4978726;28;45545;-71
2022/11/07 08:18:21;;;;;;;;;5.33;5.33;;;;;11.33;77.63;100429.31;4979598;28;45319;-71
2022/11/07 08:20:51;;;;;;;;;3.67;3.67;;;;;14.19;77.90;100887.47;4979652;28;45382;-72
2022/11/07 08:23:17;;;;;;;;;4.67;3.67;;;;;13.98;77.63;100858.50;4976189;28;45330;-70
2022/11/07 08:25:49;;;;;;;;;4.00;4.00;;;;;14.27;77.83;100905.38;4979343;28;45479;-70
2022/11/07 08:28:15;;;;;;;;;3.00;2.00;;;;;14.30;77.71;100905.88;4979841;28;46051;-71
2022/11/07 08:30:41;;;;;;;;;2.67;2.67;;;;;14.14;77.19;100871.06;4979566;28;45458;-70
2022/11/07 08:33:06;;;;;;;;;8.33;5.00;;;;;14.29;77.24;100895.34;4979943;28;45306;-72
2022/11/07 08:35:31;;;;;;;;;3.33;3.33;;;;;14.22;77.15;100864.94;4975722;28;45303;-70
2022/11/07 08:37:58;;;;;;;;;2.00;1.00;;;;;13.76;76.44;100778.94;4995312;28;47382;-71
2022/11/07 08:40:24;;;;;;;;;4.00;1.33;;;;;14.59;76.50;100900.09;4983403;28;45220;-69
2022/11/07 08:42:49;;;;;;;;;3.00;3.00;;;;;14.07;75.83;100771.16;4980538;28;45355;-71
2022/11/07 08:45:14;;;;;;;;;4.67;2.67;;;;;14.68;74.98;100863.47;4979053;28;45375;-69
2022/11/07 08:47:40;;;;;;;;;4.33;3.00;;;;;15.20;74.20;100901.38;4978096;28;46416;-70
2022/11/07 08:50:05;;;;;;;;;4.25;4.25;;;;;14.67;73.75;100800.25;4978327;28;45475;-71
2022/11/07 08:52:32;;;;;;;;;5.00;2.25;;;;;15.21;73.48;100904.91;4978461;28;45402;-71
2022/11/07 08:54:58;;;;;;;;;3.25;2.00;;;;;15.34;73.46;100926.66;4978516;28;45613;-70
2022/11/07 08:57:23;;;;;;;;;2.50;2.50;;;;;14.32;72.91;100697.94;4978914;28;46358;-70
2022/11/07 08:59:48;;;;;;;;;2.75;2.25;;;;;15.12;72.43;100829.09;4980258;28;45521;-71
2022/11/07 09:02:14;;;;;;;;;3.25;1.00;;;;;15.59;72.08;100907.84;4979720;28;45751;-69
2022/11/07 09:04:39;;;;;;;;;1.50;1.00;;;;;14.86;71.86;100799.06;4995081;28;45488;-71
2022/11/07 09:07:05;;;;;;;;;4.25;4.25;;;;;15.42;72.81;100925.81;4995579;28;46820;-71
2022/11/07 09:09:30;;;;;;;;;3.00;2.00;;;;;15.10;72.83;100876.66;4981254;28;45427;-71
2022/11/07 09:11:56;;;;;;;;;5.00;2.25;;;;;15.28;73.09;100915.78;4979640;28;45426;-70
2022/11/07 09:14:21;;;;;;;;;0.00;0.00;;;;;15.27;73.13;100933.72;4993487;28;45886;-73
2022/11/07 09:16:46;;;;;;;;;2.25;2.25;;;;;15.22;73.11;100928.03;4979228;28;45464;-70
2022/11/07 09:19:12;;;;;;;;;2.67;2.00;;;;;15.22;73.59;100933.38;4978848;28;45488;-70
2022/11/07 09:21:37;;;;;;;;;4.75;3.00;;;;;14.65;73.56;100838.91;4978115;28;45860;-70
2022/11/07 09:24:03;;;;;;;;;1.25;1.25;;;;;14.67;73.52;100836.88;4977009;28;46090;-70
2022/11/07 09:26:29;;;;;;;;;3.33;3.00;;;;;15.21;73.52;100926.31;4974600;28;45434;-70
2022/11/07 09:28:54;;;;;;;;;6.33;5.00;;;;;14.05;73.81;100727.72;4990729;28;45529;-71
2022/11/07 09:31:20;;;;;;;;;4.67;2.67;;;;;14.43;73.12;100776.19;4993722;28;45296;-69
2022/11/07 09:33:45;;;;;;;;;2.50;2.25;;;;;15.28;73.38;100900.56;4993887;28;45614;-71
2022/11/07 09:36:11;;;;;;;;;1.33;1.33;;;;;15.44;72.69;100897.00;4994000;28;48655;-72
2022/11/07 09:38:37;;;;;;;;;3.33;3.33;;;;;15.61;72.31;100921.91;4993629;28;45461;-71
2022/11/07 09:41:20;;;;;;;;;1.33;1.33;;;;;15.73;72.12;100925.91;4978327;28;45348;-75
2022/11/07 09:44:00;;;;;;;;;2.00;2.00;;;;;15.33;71.84;100839.25;4976617;28;45734;-69
2022/11/07 09:46:36;;;;;;;;;3.00;1.67;;;;;15.87;71.28;100914.47;4979989;28;46679;-70
2022/11/07 09:49:16;;;;;;;;;2.33;2.00;;;;;15.74;71.34;100900.78;4980458;28;45509;-69
2022/11/07 09:51:48;;;;;;;;;5.25;3.50;;;;;15.53;70.55;100870.00;4996026;28;45226;-72
2022/11/07 09:54:20;;;;;;;;;2.00;2.00;;;;;15.89;70.45;100915.13;4979709;28;45249;-71
2022/11/07 09:56:46;;;;;;;;;5.25;2.75;;;;;14.59;70.30;100698.59;4979797;28;46027;-69
2022/11/07 09:59:27;;;;;;;;;1.75;1.75;;;;;15.82;70.86;100920.38;4976711;28;45503;-78
2022/11/07 10:01:53;;;;;;;;;1.75;1.75;;;;;15.91;70.72;100923.84;4977402;28;45324;-71
2022/11/07 10:04:21;;;;;;;;;2.33;2.33;;;;;15.83;70.68;100910.47;4977126;28;45492;-70
2022/11/07 10:06:53;;;;;;;;;5.67;3.00;;;;;15.20;70.35;100796.94;4978019;28;46049;-69
2022/11/07 10:09:29;;;;;;;;;2.00;2.00;;;;;15.93;70.20;100929.84;4977519;28;45421;-73
2022/11/07 10:12:12;;;;;;;;;1.50;1.50;;;;;15.96;70.29;100931.34;4976619;28;45405;-68
2022/11/07 10:14:38;;;;;;;;;1.50;1.50;;;;;16.01;70.42;100932.47;4957710;28;45481;-71
2022/11/07 10:17:44;;;;;;;;;3.00;3.00;;;;;15.96;69.90;100910.72;4957181;28;46931;-70
2022/11/07 10:20:15;;;;;;;;;1.00;1.00;;;;;15.08;70.01;100766.19;4957997;28;45437;-70
2022/11/07 10:22:57;;;;;;;;;3.67;3.33;;;;;16.08;69.97;100935.31;4956884;28;45284;-71
2022/11/07 10:25:32;;;;;;;;;6.67;3.33;;;;;16.05;69.81;100927.63;4959047;28;45417;-70
2022/11/07 10:28:11;;;;;;;;;5.67;2.67;;;;;15.72;69.81;100865.28;4957922;28;46190;-68
2022/11/07 10:30:37;;;;;;;;;2.00;2.00;;;;;16.13;69.90;100908.81;4959040;28;45338;-70
2022/11/07 10:33:32;;;;;;;;;3.00;2.00;;;;;15.35;69.34;100772.94;4958424;28;45363;-70
2022/11/07 10:36:04;;;;;;;;;2.00;2.00;;;;;16.33;69.16;100911.88;4973217;28;45502;-70
2022/11/07 10:38:32;;;;;;;;;5.33;4.00;;;;;16.43;68.93;100915.19;4956752;28;45958;-72
2022/11/07 10:40:58;;;;;;;;;3.75;3.00;;;;;16.33;68.74;100879.69;4958496;28;45425;-71
2022/11/07 10:43:34;;;;;;;;;2.75;1.00;;;;;16.55;68.53;100912.91;4967251;28;45684;-70
2022/11/07 10:46:02;;;;;;;;;3.00;1.50;;;;;16.26;68.07;100849.22;4960742;28;45359;-69
2022/11/07 10:48:28;;;;;;;;;4.00;2.00;;;;;16.08;67.44;100853.00;4993479;28;46684;-72
2022/11/07 10:50:55;;;;;;;;;0.00;0.00;;;;;16.34;67.95;100870.63;4979178;28;45395;-71
2022/11/07 10:53:23;;;;;;;;;4.75;2.00;;;;;16.61;67.90;100917.53;4978507;28;45339;-71
2022/11/07 10:55:50;;;;;;;;;3.00;2.00;;;;;16.00;67.64;100809.31;4977730;28;45203;-72
2022/11/07 10:58:22;;;;;;;;;2.50;2.00;;;;;16.31;67.78;100868.28;4977359;28;47656;-72
2022/11/07 11:01:02;;;;;;;;;1.50;1.50;;;;;16.50;68.42;100913.44;4977819;28;45414;-69
2022/11/07 11:03:39;;;;;;;;;2.00;2.00;;;;;16.34;68.76;100881.34;4977245;28;45318;-72
2022/11/07 11:06:20;;;;;;;;;2.00;1.25;;;;;16.52;68.01;100914.09;4992351;28;45228;-72
2022/11/07 11:08:48;;;;;;;;;4.00;2.67;;;;;16.35;67.75;100869.59;4992011;28;45463;-70
2022/11/07 11:11:15;;;;;;;;;0.75;0.75;;;;;15.68;68.14;100756.75;4976969;28;45319;-70
2022/11/07 11:13:40;;;;;;;;;4.00;4.00;;;;;16.17;68.11;100823.44;4977368;28;45569;-72
2022/11/07 11:16:21;;;;;;;;;0.00;0.00;;;;;15.93;67.23;100777.00;4994528;28;45500;-70
2022/11/07 11:18:53;;;;;;;;;1.25;1.25;;;;;16.83;67.23;100907.88;4975829;28;46618;-70
2022/11/07 11:21:18;;;;;;;;;3.33;3.33;;;;;16.82;66.96;100896.28;4976683;28;45488;-70
2022/11/07 11:23:45;;;;;;;;;2.00;1.75;;;;;16.75;66.68;100878.38;4977756;28;45416;-72
2022/11/07 11:26:15;;;;;;;;;4.50;1.75;;;;;16.49;66.80;100831.25;4986839;28;45306;-70
2022/11/07 11:28:49;;;;;;;;;2.33;2.33;;;;;16.60;66.65;100846.91;4980020;28;46574;-70
2022/11/07 11:31:25;;;;;;;;;4.33;2.33;;;;;16.94;66.59;100902.03;4986869;28;45449;-70
2022/11/07 11:33:56;;;;;;;;;3.50;2.00;;;;;16.98;66.63;100906.88;4986067;28;45550;-71
2022/11/07 11:36:27;;;;;;;;;3.25;2.00;;;;;17.07;66.21;100894.22;4966891;28;45559;-71
2022/11/07 11:38:53;;;;;;;;;3.00;3.00;;;;;17.17;65.48;100900.13;4987055;28;47162;-72
2022/11/07 11:41:34;;;;;;;;;2.25;2.25;;;;;17.20;65.21;100899.78;4979925;28;45564;-72